Time;durP1;ratioP1;P1;durP2;ratioP2;P2;SDS_P1;SDS_P2;PMS_P1;PMS_P2;Temp;Humidity;BMP_temperature;BMP_pressure;BME280_temperature;BME280_humidity;BME280_pressure;Samples;Min_cycle;Max_cycle;Signal;HPM_P1;HPM_P2
2022/01/18 00:01:17;;;;;;;3.20;1.00;;;;;;;0.71;62.96;101291.09;4501293;31;20115;-67
2022/01/18 00:03:44;;;;;;;3.62;1.05;;;;;;;0.70;63.01;101297.97;4501021;31;20103;-67
2022/01/18 00:06:13;;;;;;;2.22;1.08;;;;;;;0.61;63.45;101301.91;4501088;31;20463;-67
2022/01/18 00:08:40;;;;;;;3.95;1.05;;;;;;;0.55;63.95;101307.69;4501009;31;20128;-67
2022/01/18 00:11:08;;;;;;;4.95;1.25;;;;;;;0.34;64.96;101323.19;4500998;31;20093;-67
2022/01/18 00:18:36;;;;;;;4.75;1.17;;;;;;;0.48;63.33;101327.28;4501034;31;20479;-67
2022/01/18 00:23:51;;;;;;;2.37;0.70;;;;;;;0.54;62.86;101347.41;4500799;31;20155;-67
2022/01/18 00:26:19;;;;;;;1.90;0.68;;;;;;;0.42;63.60;101367.59;4500838;31;20198;-67
2022/01/18 00:28:52;;;;;;;5.62;1.50;;;;;;;0.57;62.90;101360.53;4500705;31;20408;-67
2022/01/18 00:34:04;;;;;;;3.50;1.23;;;;;;;0.34;64.22;101375.03;4500717;31;20515;-67
2022/01/18 00:36:39;;;;;;;7.10;1.55;;;;;;;0.24;65.50;101380.62;4500715;31;20455;-67
2022/01/18 00:39:09;;;;;;;2.00;0.75;;;;;;;0.44;63.72;101387.59;4500591;31;20076;-67
2022/01/18 00:41:38;;;;;;;6.05;1.25;;;;;;;0.27;64.40;101375.56;4500773;31;20124;-67
2022/01/18 00:44:07;;;;;;;5.53;1.35;;;;;;;0.33;64.28;101386.22;4500441;31;20356;-67
2022/01/18 00:46:36;;;;;;;10.38;1.27;;;;;;;0.26;65.09;101385.87;4500587;31;20500;-67
2022/01/18 00:49:04;;;;;;;2.55;1.20;;;;;;;0.29;64.90;101384.31;4500624;31;20099;-67
2022/01/18 00:51:36;;;;;;;6.00;1.23;;;;;;;0.32;64.77;101396.50;4500362;31;20121;-67
2022/01/18 00:54:10;;;;;;;9.23;1.87;;;;;;;0.18;66.18;101414.06;4500419;31;20080;-67
2022/01/18 00:56:39;;;;;;;6.50;1.35;;;;;;;0.29;64.98;101422.31;4500485;31;20435;-67
2022/01/18 00:59:08;;;;;;;2.72;1.17;;;;;;;0.22;65.75;101423.75;4500360;31;20398;-67
2022/01/18 01:01:36;;;;;;;3.47;1.40;;;;;;;0.20;65.82;101426.25;4500287;31;20096;-67
2022/01/18 01:04:05;;;;;;;5.07;1.80;;;;;;;0.13;66.63;101444.91;4500098;31;20155;-67
2022/01/18 01:06:33;;;;;;;14.43;1.90;;;;;;;0.03;67.33;101447.00;4500169;31;20554;-67
2022/01/18 01:09:01;;;;;;;3.22;1.25;;;;;;;-0.09;67.53;101455.97;4500108;31;20446;-67
2022/01/18 01:11:29;;;;;;;3.78;1.27;;;;;;;-0.07;67.71;101453.44;4501171;31;20130;-67
2022/01/18 01:14:01;;;;;;;3.35;1.30;;;;;;;-0.06;68.22;101463.00;4502480;31;20099;-67
2022/01/18 01:45:55;;;;;;;5.28;1.05;;;;;;;-0.09;69.91;101457.66;4502194;31;20122;-67
2022/01/18 01:48:24;;;;;;;7.85;1.15;;;;;;;-0.09;69.43;101449.91;4502160;31;20174;-67
2022/01/18 01:51:03;;;;;;;4.45;0.82;;;;;;;-0.06;68.62;101457.81;4502421;31;20517;-67
2022/01/18 01:53:33;;;;;;;9.93;1.65;;;;;;;0.20;67.57;101443.50;4502474;31;20103;-67
2022/01/18 01:56:01;;;;;;;6.25;0.95;;;;;;;0.19;67.86;101441.72;4502222;31;20181;-67
2022/01/18 01:58:29;;;;;;;5.65;1.00;;;;;;;0.22;67.27;101447.94;4502165;31;20115;-67
2022/01/18 02:01:02;;;;;;;9.80;1.40;;;;;;;0.13;67.85;101452.69;4502250;31;20092;-67
2022/01/18 02:03:30;;;;;;;3.87;1.30;;;;;;;0.23;66.92;101469.56;4502248;31;20087;-67
2022/01/18 02:05:58;;;;;;;1.75;0.65;;;;;;;0.31;66.49;101472.50;4502004;31;20528;-67
2022/01/18 02:08:25;;;;;;;10.25;1.48;;;;;;;0.24;66.75;101489.47;4502415;31;20096;-67
2022/01/18 02:10:52;;;;;;;4.07;1.12;;;;;;;0.06;67.90;101492.09;4502030;31;20083;-67
2022/01/18 02:13:20;;;;;;;7.68;0.73;;;;;;;-0.03;67.77;101502.91;4502236;31;20432;-67
2022/01/18 02:16:15;;;;;;;3.65;0.98;;;;;;;0.01;67.62;101498.75;4502139;31;20084;-67
2022/01/18 02:24:10;;;;;;;11.43;1.52;;;;;;;-0.14;68.46;101509.25;4501323;31;20579;-67
2022/01/18 02:26:38;;;;;;;6.80;1.15;;;;;;;-0.35;69.48;101498.72;4502002;31;20482;-67
2022/01/18 02:29:08;;;;;;;5.32;1.25;;;;;;;-0.46;70.37;101510.22;4501735;31;20898;-67
2022/01/18 02:31:36;;;;;;;5.00;1.05;;;;;;;-0.37;69.49;101502.03;4501912;31;20119;-67
2022/01/18 02:34:06;;;;;;;5.40;1.33;;;;;;;-0.29;69.73;101508.47;4501979;31;20099;-67
2022/01/18 02:36:33;;;;;;;13.45;1.48;;;;;;;-0.31;70.01;101513.59;4501970;31;20095;-67
2022/01/18 02:39:03;;;;;;;3.83;0.93;;;;;;;-0.40;70.10;101512.25;4502009;31;20499;-67
2022/01/18 02:41:31;;;;;;;3.40;1.00;;;;;;;-0.46;70.39;101512.81;4501876;31;20118;-67
2022/01/18 02:44:01;;;;;;;3.72;1.42;;;;;;;-0.30;69.96;101506.72;4501749;31;20084;-67
2022/01/18 02:46:29;;;;;;;9.40;1.60;;;;;;;-0.34;70.17;101520.31;4501777;31;20110;-67
2022/01/18 02:48:58;;;;;;;5.50;1.00;;;;;;;-0.42;70.68;101525.13;4501867;31;20453;-67
2022/01/18 02:51:26;;;;;;;6.78;1.23;;;;;;;-0.59;71.55;101520.78;4501760;31;20110;-67
2022/01/18 02:54:08;;;;;;;8.90;1.08;;;;;;;-0.72;72.40;101522.72;4501831;31;20146;-67
2022/01/18 02:56:42;;;;;;;7.57;1.67;;;;;;;-0.69;72.56;101521.13;4501694;31;20539;-67
2022/01/18 03:04:24;;;;;;;7.12;1.60;;;;;;;-1.12;74.01;101537.84;4501679;31;20075;-67
2022/01/18 03:06:51;;;;;;;6.25;1.23;;;;;;;-0.99;73.85;101540.31;4501753;31;20099;-67
2022/01/18 03:09:19;;;;;;;8.57;1.35;;;;;;;-0.94;73.45;101543.13;4501659;31;20103;-67
2022/01/18 03:11:46;;;;;;;3.42;1.10;;;;;;;-0.93;73.25;101538.84;4501666;31;20075;-67
2022/01/18 03:14:14;;;;;;;6.55;1.50;;;;;;;-1.08;74.18;101560.50;4501712;31;20092;-67
2022/01/18 03:16:41;;;;;;;4.30;0.90;;;;;;;-0.96;73.67;101555.06;4501615;31;20095;-67
2022/01/18 03:19:08;;;;;;;4.12;1.50;;;;;;;-0.95;74.18;101564.63;4501695;31;20466;-67
2022/01/18 03:21:35;;;;;;;5.07;1.00;;;;;;;-0.87;73.60;101562.44;4501657;31;20106;-67
2022/01/18 03:24:49;;;;;;;3.50;1.12;;;;;;;-1.09;74.81;101576.81;4501561;31;20104;-67
2022/01/18 03:29:40;;;;;;;9.23;1.55;;;;;;;-1.28;75.58;101594.72;4501559;31;20091;-67
2022/01/18 03:32:08;;;;;;;5.12;0.88;;;;;;;-1.13;74.84;101595.56;4501769;31;20080;-67
2022/01/18 03:34:35;;;;;;;2.85;1.10;;;;;;;-1.34;76.22;101607.28;4500897;31;20092;-67
2022/01/18 03:37:02;;;;;;;5.55;1.65;;;;;;;-1.42;76.59;101614.62;4501637;31;20155;-67
2022/01/18 03:39:30;;;;;;;5.47;1.40;;;;;;;-1.31;76.53;101620.37;4501770;31;20777;-67
2022/01/18 03:42:16;;;;;;;8.13;1.30;;;;;;;-1.34;76.55;101627.97;4501458;31;20079;-67
2022/01/18 03:44:45;;;;;;;2.27;1.03;;;;;;;-1.41;77.09;101629.34;4501471;31;20100;-67
2022/01/18 03:47:19;;;;;;;7.03;1.42;;;;;;;-1.26;75.90;101626.72;4501567;31;20088;-67
2022/01/18 03:49:46;;;;;;;7.20;1.20;;;;;;;-1.26;75.96;101634.47;4501409;31;20076;-67
2022/01/18 03:52:13;;;;;;;9.52;1.42;;;;;;;-1.29;75.97;101626.56;4501420;31;20523;-67
2022/01/18 03:54:47;;;;;;;9.80;1.27;;;;;;;-1.07;75.09;101633.78;4501421;31;20091;-67
2022/01/18 03:57:16;;;;;;;3.87;1.17;;;;;;;-1.08;74.89;101637.19;4501206;31;20158;-67
2022/01/18 03:59:44;;;;;;;3.45;1.27;;;;;;;-1.27;75.76;101648.22;4501211;31;20083;-67
2022/01/18 04:02:11;;;;;;;3.65;1.50;;;;;;;-1.23;75.55;101643.31;4501079;31;20071;-67
2022/01/18 04:04:39;;;;;;;2.78;0.80;;;;;;;-1.02;74.68;101648.78;4501132;31;20125;-67
2022/01/18 04:07:07;;;;;;;3.22;1.02;;;;;;;-0.75;73.65;101651.06;4501131;31;20096;-67
2022/01/18 04:09:34;;;;;;;8.02;1.52;;;;;;;-0.66;73.06;101659.34;4501053;31;20125;-67
2022/01/18 04:12:04;;;;;;;9.05;1.20;;;;;;;-0.64;73.00;101662.88;4501042;31;20408;-67
2022/01/18 04:14:31;;;;;;;5.20;1.35;;;;;;;-0.77;73.37;101658.75;4501007;31;20095;-67
2022/01/18 04:27:39;;;;;;;3.40;1.08;;;;;;;-0.71;72.97;101668.53;4500634;31;20138;-67
2022/01/18 04:30:07;;;;;;;4.18;1.60;;;;;;;-0.72;72.97;101665.06;4500827;31;20099;-67
2022/01/18 04:32:35;;;;;;;12.25;1.42;;;;;;;-0.70;72.76;101664.28;4500769;31;20459;-67
2022/01/18 04:35:02;;;;;;;11.45;1.48;;;;;;;-0.70;72.79;101662.59;4500716;31;20118;-67
2022/01/18 04:37:29;;;;;;;4.18;1.42;;;;;;;-0.77;73.07;101666.53;4500598;31;20095;-67
2022/01/18 04:39:58;;;;;;;5.12;1.30;;;;;;;-0.70;72.88;101672.06;4500727;31;20100;-67
2022/01/18 04:42:40;;;;;;;6.35;1.30;;;;;;;-0.75;73.02;101680.44;4500633;31;20080;-67
2022/01/18 04:50:39;;;;;;;7.95;1.27;;;;;;;-0.87;73.53;101705.66;4502745;31;20103;-67
2022/01/18 04:53:06;;;;;;;8.20;1.73;;;;;;;-0.96;73.98;101703.41;4502606;31;20465;-67
2022/01/18 04:55:35;;;;;;;4.85;1.30;;;;;;;-1.09;74.34;101706.16;4502615;31;20436;-67
2022/01/18 04:58:02;;;;;;;9.85;1.95;;;;;;;-1.06;74.18;101697.66;4496130;31;20116;-67
2022/01/18 05:00:30;;;;;;;7.95;1.10;;;;;;;-1.04;74.26;101704.69;4494394;31;20129;-67
2022/01/18 05:02:57;;;;;;;11.50;1.62;;;;;;;-1.19;74.69;101706.44;4502711;31;20076;-67
2022/01/18 05:05:28;;;;;;;17.17;1.60;;;;;;;-1.16;74.72;101708.31;4502656;31;20107;-68
2022/01/18 05:08:02;;;;;;;9.68;1.80;;;;;;;-1.29;75.21;101704.13;4502234;31;20100;-67
2022/01/18 05:10:30;;;;;;;4.57;1.50;;;;;;;-1.55;76.57;101710.41;4496948;31;20484;-67
2022/01/18 05:13:01;;;;;;;4.07;1.52;;;;;;;-1.60;76.86;101715.28;4503415;31;20144;-67
2022/01/18 05:15:41;;;;;;;5.45;1.92;;;;;;;-1.50;76.54;101709.84;4499590;31;20151;-67
2022/01/18 05:21:15;;;;;;;9.13;1.42;;;;;;;-1.27;75.70;101694.78;4502369;31;20111;-67
2022/01/18 05:23:43;;;;;;;10.40;1.55;;;;;;;-1.17;75.15;101691.88;4502120;31;20076;-67
2022/01/18 05:26:10;;;;;;;9.10;1.80;;;;;;;-1.11;74.79;101688.75;4502399;31;20114;-67
2022/01/18 05:28:37;;;;;;;9.95;2.03;;;;;;;-1.25;75.16;101691.44;4502052;31;20173;-67
2022/01/18 05:31:04;;;;;;;2.58;1.12;;;;;;;-1.29;75.47;101698.94;4501991;31;20439;-67
2022/01/18 05:33:32;;;;;;;9.40;1.37;;;;;;;-1.63;76.90;101707.34;4491334;31;20484;-67
2022/01/18 05:36:00;;;;;;;8.57;1.92;;;;;;;-1.85;77.97;101714.63;4493634;31;20156;-67
2022/01/18 05:38:27;;;;;;;10.02;1.87;;;;;;;-1.82;78.27;101722.56;4492409;31;20120;-67
2022/01/18 05:40:55;;;;;;;9.00;2.00;;;;;;;-1.74;77.84;101719.62;4486315;31;20507;-67
2022/01/18 05:43:22;;;;;;;4.07;1.55;;;;;;;-1.65;77.52;101733.91;4486110;31;20159;-67
2022/01/18 05:45:49;;;;;;;13.00;2.47;;;;;;;-1.75;77.91;101733.34;4486051;31;20572;-67
2022/01/18 05:48:17;;;;;;;4.57;1.50;;;;;;;-1.81;78.24;101727.81;4486234;31;20160;-67
2022/01/18 05:50:44;;;;;;;5.40;1.30;;;;;;;-1.81;78.15;101735.56;4486045;31;20096;-67
2022/01/18 05:53:11;;;;;;;4.70;1.75;;;;;;;-1.39;77.47;101719.91;4486040;31;20400;-67
2022/01/18 05:55:39;;;;;;;11.70;1.42;;;;;;;-1.54;77.61;101731.16;4486539;31;20499;-67
2022/01/18 05:58:06;;;;;;;10.95;1.60;;;;;;;-1.58;78.19;101726.59;4485950;31;20103;-67
2022/01/18 06:00:33;;;;;;;2.37;1.50;;;;;;;-1.70;78.81;101721.63;4486197;31;20100;-67
2022/01/18 06:03:03;;;;;;;9.30;2.10;;;;;;;-1.80;79.51;101723.53;4486304;31;20096;-67
2022/01/18 06:08:17;;;;;;;7.35;1.30;;;;;;;-1.70;79.55;101723.28;4498292;31;20553;-68
2022/01/18 06:10:44;;;;;;;6.55;1.52;;;;;;;-1.61;79.47;101721.25;4493341;31;20130;-67
2022/01/18 06:13:13;;;;;;;6.95;1.33;;;;;;;-1.37;78.45;101726.06;4492073;31;20138;-67
2022/01/18 06:15:41;;;;;;;18.05;2.50;;;;;;;-1.40;78.51;101723.31;4487460;31;20123;-67
2022/01/18 06:18:08;;;;;;;2.97;1.30;;;;;;;-1.26;78.27;101725.00;4486011;31;20751;-67
2022/01/18 06:20:36;;;;;;;5.72;1.35;;;;;;;-1.14;78.00;101730.84;4490854;31;20159;-67
2022/01/18 06:23:03;;;;;;;7.15;2.15;;;;;;;-0.94;77.18;101731.97;4501262;31;20154;-67
2022/01/18 06:25:31;;;;;;;10.50;1.77;;;;;;;-0.91;77.19;101729.56;4501445;31;20156;-67
2022/01/18 06:27:58;;;;;;;6.40;1.73;;;;;;;-0.90;77.03;101728.75;4501494;31;20115;-67
2022/01/18 06:30:25;;;;;;;1.60;0.95;;;;;;;-0.89;77.09;101720.19;4501582;31;20107;-67
2022/01/18 06:32:52;;;;;;;35.83;3.25;;;;;;;-0.82;76.81;101722.31;4494440;31;20079;-67
2022/01/18 06:35:19;;;;;;;7.35;2.10;;;;;;;-0.79;76.82;101724.19;4487608;31;20096;-67
2022/01/18 06:37:47;;;;;;;10.82;2.92;;;;;;;-0.89;77.41;101727.06;4500257;31;20199;-67
2022/01/18 06:40:14;;;;;;;11.35;2.75;;;;;;;-0.89;77.49;101725.34;4501634;31;20593;-67
2022/01/18 06:42:41;;;;;;;21.80;6.57;;;;;;;-0.90;77.81;101728.75;4501897;31;20203;-67
2022/01/18 06:45:10;;;;;;;10.15;3.67;;;;;;;-0.87;77.81;101730.62;4501680;31;20538;-67
2022/01/18 06:47:38;;;;;;;7.12;2.92;;;;;;;-0.86;77.93;101722.94;4496397;31;20122;-66
2022/01/18 06:50:07;;;;;;;12.48;3.35;;;;;;;-0.85;78.01;101718.66;4494591;31;20179;-67
2022/01/18 06:52:34;;;;;;;14.05;3.37;;;;;;;-0.77;77.89;101723.47;4500587;31;20398;-67
2022/01/18 06:55:02;;;;;;;10.27;2.58;;;;;;;-0.78;78.05;101715.59;4498435;31;20447;-66
2022/01/18 06:57:29;;;;;;;9.30;2.55;;;;;;;-0.74;78.01;101713.28;4498336;31;20122;-67
2022/01/18 06:59:56;;;;;;;8.68;1.62;;;;;;;-0.67;77.83;101717.09;4496990;31;20155;-67
2022/01/18 07:02:24;;;;;;;15.23;3.35;;;;;;;-0.60;77.69;101718.31;4495545;31;20087;-66
2022/01/18 07:04:51;;;;;;;8.60;2.92;;;;;;;-0.63;77.97;101715.56;4496970;31;20121;-66
2022/01/18 07:07:19;;;;;;;13.48;2.78;;;;;;;-0.58;77.76;101724.47;4502322;31;20744;-67
2022/01/18 07:09:46;;;;;;;7.00;2.65;;;;;;;-0.58;77.80;101725.34;4500929;31;20129;-67
2022/01/18 07:12:13;;;;;;;13.80;2.80;;;;;;;-0.52;77.69;101709.28;4498530;31;20085;-68
2022/01/18 07:14:42;;;;;;;2.87;1.17;;;;;;;-0.53;77.86;101725.59;4490719;31;20463;-66
2022/01/18 07:17:09;;;;;;;6.82;1.45;;;;;;;-0.46;77.57;101713.88;4499528;31;20774;-67
2022/01/18 07:19:37;;;;;;;10.05;2.80;;;;;;;-0.33;77.08;101726.69;4487201;31;20171;-67
2022/01/18 07:22:05;;;;;;;14.10;2.37;;;;;;;-0.32;77.10;101733.62;4492568;31;20167;-66
2022/01/18 07:24:45;;;;;;;12.60;1.75;;;;;;;-0.20;76.66;101738.59;4501060;31;20092;-66
2022/01/18 07:27:15;;;;;;;6.87;1.62;;;;;;;-0.19;76.66;101730.00;4501230;31;20550;-65
2022/01/18 07:29:43;;;;;;;10.48;1.95;;;;;;;-0.11;76.44;101770.16;4500918;31;20142;-65
2022/01/18 07:32:11;;;;;;;11.75;2.75;;;;;;;-0.06;76.18;101754.06;4501317;31;20095;-66
2022/01/18 07:34:53;;;;;;;6.78;2.80;;;;;;;-0.01;76.03;101737.03;4501417;31;20084;-65
2022/01/18 07:37:21;;;;;;;12.63;2.33;;;;;;;0.03;75.90;101750.16;4491220;31;20506;-66
2022/01/18 07:39:51;;;;;;;7.30;2.05;;;;;;;0.08;75.92;101752.19;4501325;31;20159;-66
2022/01/18 07:42:20;;;;;;;3.85;1.92;;;;;;;0.14;75.76;101754.19;4501187;31;20109;-68
2022/01/18 07:44:48;;;;;;;8.40;2.00;;;;;;;0.20;75.80;101749.34;4501006;31;20175;-69
2022/01/18 07:47:15;;;;;;;20.83;1.65;;;;;;;0.22;75.61;101748.63;4500031;31;20541;-67
2022/01/18 07:49:45;;;;;;;8.02;1.33;;;;;;;0.29;75.14;101746.34;4485219;31;20448;-67
2022/01/18 07:52:15;;;;;;;2.97;2.12;;;;;;;0.38;74.68;101760.66;4485260;31;20474;-67
2022/01/18 07:54:43;;;;;;;9.35;2.08;;;;;;;0.49;74.49;101771.56;4485311;31;20122;-64
2022/01/18 07:57:13;;;;;;;15.38;1.73;;;;;;;0.48;74.18;101760.31;4485067;31;20092;-65
2022/01/18 07:59:40;;;;;;;6.85;1.60;;;;;;;0.61;73.68;101766.16;4485131;31;20099;-64
2022/01/18 08:02:07;;;;;;;6.87;1.87;;;;;;;0.73;72.88;101776.25;4492524;31;20135;-65
2022/01/18 08:04:35;;;;;;;3.47;1.27;;;;;;;0.77;72.50;101791.12;4491415;31;20209;-65
2022/01/18 08:07:03;;;;;;;12.20;2.12;;;;;;;0.78;72.00;101801.59;4486038;31;20168;-65
2022/01/18 08:09:30;;;;;;;6.55;1.15;;;;;;;0.79;72.29;101798.19;4495679;31;20821;-65
2022/01/18 08:11:57;;;;;;;9.23;2.30;;;;;;;0.86;71.89;101779.53;4492843;31;20084;-68
2022/01/18 08:14:27;;;;;;;8.77;1.73;;;;;;;0.90;71.52;101804.81;4498076;31;20411;-67
2022/01/18 08:17:00;;;;;;;3.97;1.05;;;;;;;0.96;71.79;101801.62;4497920;31;20087;-65
2022/01/18 08:19:29;;;;;;;5.90;2.00;;;;;;;1.02;71.36;101817.50;4492995;31;20099;-67
2022/01/18 08:21:58;;;;;;;7.75;1.33;;;;;;;1.12;70.99;101827.53;4496305;31;20176;-66
2022/01/18 08:24:26;;;;;;;9.45;1.62;;;;;;;1.16;70.68;101831.16;4478241;31;20145;-66
2022/01/18 08:26:54;;;;;;;6.35;1.37;;;;;;;1.17;70.74;101833.84;4495423;31;20108;-67
2022/01/18 08:29:21;;;;;;;19.35;1.62;;;;;;;1.28;70.49;101838.69;4494226;31;20156;-67
2022/01/18 08:32:09;;;;;;;17.85;2.25;;;;;;;1.29;70.37;101843.06;4496833;31;20104;-67
2022/01/18 08:34:36;;;;;;;13.65;2.12;;;;;;;1.31;70.61;101842.31;4493878;31;20092;-66
2022/01/18 08:37:03;;;;;;;12.90;1.98;;;;;;;1.37;70.66;101858.16;4494520;31;20107;-66
2022/01/18 08:39:30;;;;;;;7.65;1.60;;;;;;;1.43;69.63;101863.69;4498210;31;20228;-65
2022/01/18 08:41:57;;;;;;;4.93;1.40;;;;;;;1.46;69.91;101865.53;4496799;31;20088;-66
2022/01/18 08:44:25;;;;;;;14.18;2.15;;;;;;;1.58;70.00;101873.91;4494122;31;20095;-68
2022/01/18 08:46:52;;;;;;;4.78;1.23;;;;;;;1.53;69.71;101861.53;4495650;31;20758;-69
2022/01/18 08:49:19;;;;;;;6.57;1.90;;;;;;;1.57;69.90;101866.06;4493651;31;20104;-67
2022/01/18 08:51:46;;;;;;;6.87;2.00;;;;;;;1.62;69.76;101867.16;4493892;31;20096;-65
2022/01/18 08:54:14;;;;;;;12.13;2.05;;;;;;;1.63;69.76;101868.97;4492482;31;20118;-66
2022/01/18 08:56:41;;;;;;;6.60;1.17;;;;;;;1.67;69.63;101869.19;4494464;31;20096;-65
2022/01/18 08:59:24;;;;;;;9.63;2.33;;;;;;;1.66;69.55;101856.09;4494945;31;20134;-66
2022/01/18 09:01:51;;;;;;;5.05;1.35;;;;;;;1.79;69.70;101873.16;4495509;31;20091;-66
2022/01/18 09:04:19;;;;;;;6.57;1.92;;;;;;;1.87;69.02;101864.94;4495196;31;20104;-64
2022/01/18 09:06:50;;;;;;;10.15;2.50;;;;;;;1.88;68.41;101884.00;4494168;31;20111;-66
2022/01/18 09:09:19;;;;;;;4.75;2.17;;;;;;;1.85;68.60;101869.16;4494684;31;20250;-65
2022/01/18 09:11:47;;;;;;;15.38;2.40;;;;;;;1.92;68.41;101886.81;4494313;31;20601;-66
2022/01/18 09:14:15;;;;;;;7.72;2.20;;;;;;;1.97;67.35;101879.22;4494311;31;20088;-65
2022/01/18 09:16:43;;;;;;;5.35;1.90;;;;;;;2.07;67.81;101897.03;4495885;31;20099;-66
2022/01/18 09:19:11;;;;;;;13.35;2.12;;;;;;;2.09;67.17;101887.63;4494132;31;20134;-66
2022/01/18 09:21:38;;;;;;;7.50;1.42;;;;;;;2.20;67.47;101906.31;4479705;31;20079;-65
2022/01/18 09:24:06;;;;;;;9.70;1.55;;;;;;;2.34;66.30;101917.38;4495299;31;20136;-67
2022/01/18 09:26:33;;;;;;;10.63;2.53;;;;;;;2.38;66.42;101908.88;4494995;31;20126;-66
2022/01/18 09:29:00;;;;;;;1.90;0.77;;;;;;;2.39;66.22;101911.53;4496202;31;20776;-65
2022/01/18 09:31:29;;;;;;;4.87;1.02;;;;;;;2.55;65.18;101914.84;4486953;31;20156;-65
2022/01/18 09:33:56;;;;;;;5.03;1.00;;;;;;;2.51;64.22;101913.81;4487074;31;20103;-67
2022/01/18 09:36:23;;;;;;;2.33;1.52;;;;;;;2.57;64.39;101924.47;4487336;31;20727;-66
2022/01/18 09:38:51;;;;;;;9.38;2.40;;;;;;;2.67;64.81;101925.78;4487281;31;20160;-67
2022/01/18 09:41:20;;;;;;;12.88;2.10;;;;;;;2.80;65.54;101927.25;4486972;31;20433;-66
2022/01/18 09:43:51;;;;;;;5.15;1.87;;;;;;;2.82;63.99;101928.19;4493295;31;20112;-66
2022/01/18 09:46:19;;;;;;;7.12;1.73;;;;;;;3.03;63.39;101933.44;4495439;31;20091;-65
2022/01/18 09:48:46;;;;;;;10.95;1.08;;;;;;;2.98;62.30;101924.56;4494780;31;20138;-65
2022/01/18 09:51:14;;;;;;;5.55;1.25;;;;;;;2.93;61.67;101929.53;4491748;31;20092;-66
2022/01/18 09:53:41;;;;;;;8.63;2.10;;;;;;;3.01;62.17;101929.91;4493133;31;20164;-67
2022/01/18 09:56:08;;;;;;;7.45;1.70;;;;;;;3.09;61.06;101934.59;4493784;31;20096;-67
2022/01/18 09:58:36;;;;;;;3.80;0.80;;;;;;;2.99;61.15;101936.75;4495021;31;20163;-66
2022/01/18 10:01:04;;;;;;;4.37;1.65;;;;;;;2.99;60.88;101940.22;4502233;31;20136;-66
2022/01/18 10:03:32;;;;;;;8.10;1.12;;;;;;;3.07;61.01;101931.06;4502043;31;20755;-66
2022/01/18 10:06:02;;;;;;;7.70;1.37;;;;;;;3.10;60.11;101935.50;4502161;31;20114;-68
2022/01/18 10:08:41;;;;;;;2.83;1.17;;;;;;;3.07;59.44;101941.47;4502293;31;20091;-66
2022/01/18 10:11:13;;;;;;;6.62;2.62;;;;;;;3.09;60.06;101939.81;4502416;31;20072;-67
2022/01/18 10:13:45;;;;;;;2.08;0.90;;;;;;;3.14;60.41;101947.81;4502508;31;20088;-66
2022/01/18 10:16:16;;;;;;;8.38;1.23;;;;;;;3.22;60.01;101941.25;4496151;31;20099;-65
2022/01/18 10:18:48;;;;;;;7.90;1.60;;;;;;;3.25;59.33;101940.47;4491114;31;20842;-66
2022/01/18 10:21:30;;;;;;;5.65;1.60;;;;;;;3.29;59.76;101943.28;4494598;31;20080;-66
2022/01/18 10:24:26;;;;;;;4.15;1.62;;;;;;;3.42;59.24;101949.00;4494650;31;20088;-66
2022/01/18 10:26:55;;;;;;;8.52;2.28;;;;;;;3.37;59.19;101930.59;4494137;31;20712;-67
2022/01/18 10:29:28;;;;;;;5.18;1.62;;;;;;;3.23;59.79;101935.19;4491984;31;20483;-68
2022/01/18 10:32:02;;;;;;;13.62;1.98;;;;;;;3.24;60.11;101923.94;4493811;31;20138;-68
2022/01/18 10:35:04;;;;;;;2.70;1.45;;;;;;;3.25;60.13;101914.41;4493425;31;20105;-67
2022/01/18 10:37:33;;;;;;;9.18;1.40;;;;;;;3.42;59.62;101909.91;4494747;31;20096;-68
2022/01/18 10:40:04;;;;;;;1.25;0.90;;;;;;;3.86;58.01;101903.91;4493168;31;20103;-68
2022/01/18 10:42:50;;;;;;;5.28;1.58;;;;;;;4.42;56.29;101905.22;4487873;31;20088;-67
2022/01/18 10:45:33;;;;;;;8.38;1.83;;;;;;;5.30;54.22;101900.47;4486085;31;20382;-67
2022/01/18 10:48:14;;;;;;;5.43;1.67;;;;;;;5.47;52.85;101909.78;4486358;31;20117;-69
2022/01/18 10:50:44;;;;;;;4.20;1.15;;;;;;;5.61;52.49;101907.63;4486548;31;20125;-68
2022/01/18 10:53:17;;;;;;;7.00;1.52;;;;;;;6.07;51.38;101916.97;4472027;31;20152;-68
2022/01/18 10:55:48;;;;;;;8.02;3.78;;;;;;;5.77;51.23;101909.91;4486273;31;20088;-68
2022/01/18 10:58:18;;;;;;;14.63;5.30;;;;;;;6.01;51.14;101915.06;4485945;31;20749;-68
2022/01/18 11:00:47;;;;;;;10.38;4.78;;;;;;;6.08;50.26;101917.03;4471422;31;20115;-68
2022/01/18 11:03:14;;;;;;;11.43;2.95;;;;;;;6.53;49.44;101916.62;4485736;31;20120;-68
2022/01/18 11:05:43;;;;;;;9.05;2.47;;;;;;;6.52;48.49;101942.78;4486139;31;20108;-68
2022/01/18 11:08:15;;;;;;;18.20;3.70;;;;;;;6.30;49.25;101936.00;4486083;31;20431;-68
2022/01/18 11:10:48;;;;;;;8.02;3.00;;;;;;;6.71;48.72;101924.13;4491181;31;20092;-68
2022/01/18 11:13:34;;;;;;;10.60;2.47;;;;;;;7.06;47.65;101927.72;4490898;31;20144;-70
2022/01/18 11:16:12;;;;;;;8.10;1.83;;;;;;;7.12;46.83;101919.16;4488505;31;20088;-68
2022/01/18 11:18:46;;;;;;;11.02;3.00;;;;;;;7.01;47.76;101926.72;4495801;31;20134;-68
2022/01/18 11:21:15;;;;;;;7.07;2.10;;;;;;;6.58;48.29;101929.88;4499649;31;20099;-67
2022/01/18 11:23:44;;;;;;;8.57;2.00;;;;;;;7.29;47.24;101922.22;4501164;31;20498;-68
2022/01/18 11:26:12;;;;;;;14.00;2.87;;;;;;;7.96;45.14;101951.87;4501782;31;20096;-67
2022/01/18 11:28:40;;;;;;;6.93;2.58;;;;;;;7.49;46.09;101944.63;4492566;31;20357;-67
2022/01/18 11:31:10;;;;;;;3.75;1.02;;;;;;;7.46;46.31;101946.28;4484758;31;20778;-67
2022/01/18 11:33:49;;;;;;;9.27;1.98;;;;;;;7.83;45.19;101937.56;4489902;31;20114;-67
2022/01/18 11:36:21;;;;;;;;;;;;;;;7.38;45.65;101935.56;4490876;31;20104;-66
2022/01/18 11:39:00;;;;;;;11.45;2.15;;;;;;;7.36;46.11;101939.91;4484441;31;19991;-65
2022/01/18 11:41:30;;;;;;;10.15;1.27;;;;;;;8.01;44.81;101956.38;4484259;31;20168;-66
2022/01/18 11:44:09;;;;;;;9.80;1.83;;;;;;;7.78;44.80;101954.94;4485132;31;20088;-67
2022/01/18 11:46:43;;;;;;;10.57;2.15;;;;;;;8.35;44.04;101951.91;4485460;31;20099;-66
2022/01/18 11:49:33;;;;;;;5.43;2.00;;;;;;;8.43;43.69;101942.50;4486048;31;20093;-66
2022/01/18 11:52:05;;;;;;;1.55;1.37;;;;;;;7.97;44.16;101928.28;4484886;31;20215;-67
2022/01/18 11:57:01;;;;;;;9.30;2.67;;;;;;;7.70;44.94;101935.50;4497931;31;20083;-67
2022/01/18 11:59:38;;;;;;;6.12;1.87;;;;;;;8.07;44.40;101938.16;4499546;31;20092;-69
2022/01/18 12:02:06;;;;;;;5.07;1.62;;;;;;;8.22;43.62;101934.97;4499823;31;20118;-68
2022/01/18 12:04:49;;;;;;;8.43;2.67;;;;;;;7.78;44.40;101941.84;4498821;31;20147;-68
2022/01/18 12:07:36;;;;;;;8.95;1.50;;;;;;;7.98;44.51;101939.66;4499769;31;20111;-67
2022/01/18 12:10:05;;;;;;;9.43;2.10;;;;;;;8.77;43.27;101946.72;4485223;31;20092;-66
2022/01/18 12:12:42;;;;;;;3.15;1.12;;;;;;;9.79;41.35;101958.25;4488344;31;20153;-66
2022/01/18 12:15:15;;;;;;;7.37;1.65;;;;;;;9.43;40.81;101963.75;4490133;31;20125;-66
2022/01/18 12:18:03;;;;;;;10.52;2.20;;;;;;;10.05;41.03;101971.84;4485401;31;20451;-66
2022/01/18 12:20:34;;;;;;;4.43;1.60;;;;;;;9.07;41.89;101945.56;4491884;31;20183;-67
2022/01/18 12:23:02;;;;;;;10.07;2.42;;;;;;;9.80;40.14;101974.94;4495445;31;20456;-65
2022/01/18 12:25:34;;;;;;;7.70;1.95;;;;;;;9.25;40.88;101953.78;4487648;31;20149;-66
2022/01/18 12:28:48;;;;;;;4.87;1.98;;;;;;;9.77;40.67;101959.97;4491494;31;20076;-67
2022/01/18 12:34:32;;;;;;;4.00;1.75;;;;;;;9.57;40.06;101945.59;4485638;31;20084;-68
2022/01/18 12:37:06;;;;;;;7.10;2.10;;;;;;;9.27;40.93;101924.91;4485129;31;20137;-69
2022/01/18 12:39:57;;;;;;;9.80;2.72;;;;;;;9.50;40.46;101933.19;4484988;31;20150;-69
2022/01/18 12:45:11;;;;;;;4.93;1.25;;;;;;;9.11;40.69;101915.81;4485313;31;20172;-68
2022/01/18 12:47:43;;;;;;;4.55;1.90;;;;;;;8.69;41.85;101922.00;4485730;31;20492;-69
2022/01/18 12:50:11;;;;;;;6.95;2.00;;;;;;;9.24;41.19;101909.06;4493693;31;20087;-68
2022/01/18 12:53:11;;;;;;;11.30;2.37;;;;;;;9.12;40.81;101921.97;4490149;31;20541;-67
2022/01/18 12:55:45;;;;;;;3.83;2.08;;;;;;;8.95;41.76;101919.91;4465875;31;20100;-67
2022/01/18 12:58:26;;;;;;;6.40;2.45;;;;;;;9.48;40.77;101933.16;4493984;31;20510;-67
2022/01/18 13:01:09;;;;;;;10.25;2.30;;;;;;;9.69;40.44;101942.28;4491309;31;20091;-67
2022/01/18 13:03:38;;;;;;;12.60;1.90;;;;;;;9.76;39.72;101934.53;4492345;31;20144;-67
2022/01/18 13:06:09;;;;;;;11.30;1.98;;;;;;;9.24;41.04;101924.84;4490977;31;20096;-67
2022/01/18 13:08:53;;;;;;;5.18;2.10;;;;;;;8.84;42.00;101953.88;4495132;31;20457;-67